»·PEaware :: SWA437 KDAL-KDEN

SWA437 :: KDAL-KDEN

FLIGHT INFORMATION

Flight Status: Arrived
Operator:
Southwest Airlines
More flights by this operator :: More flights under this callsign
Pilot: Tristan Z. (4790)
Aircraft: BOEING 737-800
(B738)
More flights by this aircraft type
Origin: KDAL Dallas Love
United States
Destination: KDEN Denver Intl
United States
More flights between these airports :: More routes between these airports
Route: +ESNYE4 ROLLS DRAWL HALEN NIIXX1
File this flight plan on PilotEdge
Remarks:
Altitude:
(Current/Filed)
36,000ft
Speed:
(Current/Filed)
450kts
Departed: 15-Apr-20 08:02 PM
Arrived: 15-Apr-20 09:45 PM
Distance/Time
Traveled:
565nm/1:43
Distance/Time
To Go:
Arrived

Flight Plot

Page will automatically refresh every two minutes.

Flight plan parsing failed; only flown route is shown


Map Options




Map Legend


Flown Route
Filed Route
Departure Airport
Arrival Airport
Navaid (VOR, NDB)
Fix

Horizontal Profiles

Position Reports

Time Latitude Longitude Heading Altitude Ground
Speed
15-Apr-20 19:41 32.845936 -96.852296 80 495ft 0kts
15-Apr-20 19:42 32.845936 -96.852296 80 495ft 0kts
15-Apr-20 19:43 32.845936 -96.852296 80 494ft 0kts
15-Apr-20 19:44 32.845936 -96.852296 80 494ft 0kts
15-Apr-20 19:45 32.845936 -96.852296 80 494ft 0kts
15-Apr-20 19:46 32.845936 -96.852296 80 494ft 0kts
15-Apr-20 19:47 32.845936 -96.852296 80 494ft 0kts
15-Apr-20 19:48 32.845936 -96.852296 80 494ft 0kts
15-Apr-20 19:49 32.845936 -96.852296 80 494ft 0kts
15-Apr-20 19:50 32.845936 -96.852296 80 494ft 0kts
15-Apr-20 19:51 32.845936 -96.852297 80 495ft 0kts
15-Apr-20 19:52 32.845914 -96.852462 80 495ft 2kts
15-Apr-20 19:53 32.845895 -96.853083 95 495ft 0kts
15-Apr-20 19:54 32.845895 -96.853085 95 494ft 0kts
15-Apr-20 19:55 32.845895 -96.853085 95 494ft 0kts
15-Apr-20 19:56 32.845835 -96.853010 175 494ft 1kts
15-Apr-20 19:57 32.842810 -96.851752 137 494ft 21kts
15-Apr-20 19:58 32.838166 -96.846380 134 495ft 22kts
15-Apr-20 19:59 32.834751 -96.842918 208 494ft 8kts
15-Apr-20 20:00 32.834259 -96.843604 304 494ft 2kts
15-Apr-20 20:01 32.849518 -96.861569 312 648ft 163kts
15-Apr-20 20:02 32.879516 -96.895740 318 2122ft 199kts
15-Apr-20 20:03 32.950365 -96.887079 33 4155ft 265kts
15-Apr-20 20:04 33.046134 -96.859292 1 5977ft 288kts
15-Apr-20 20:05 33.123584 -96.862789 342 8535ft 283kts
15-Apr-20 20:06 33.193384 -96.900262 325 10812ft 304kts
15-Apr-20 20:07 33.263770 -96.965064 309 13058ft 327kts
15-Apr-20 20:08 33.321327 -97.050363 306 15772ft 335kts
15-Apr-20 20:09 33.379145 -97.139188 305 18265ft 343kts
15-Apr-20 20:10 33.446649 -97.221639 326 20460ft 363kts
15-Apr-20 20:11 33.550894 -97.236549 355 22388ft 398kts
15-Apr-20 20:12 33.662990 -97.226680 357 24102ft 411kts
15-Apr-20 20:13 33.776237 -97.215001 357 25660ft 421kts
15-Apr-20 20:14 33.895799 -97.202305 356 27099ft 431kts
15-Apr-20 20:15 34.016214 -97.189400 356 28396ft 440kts
15-Apr-20 20:16 34.139244 -97.176311 353 29531ft 446kts
15-Apr-20 20:17 34.246906 -97.224522 312 30683ft 406kts
15-Apr-20 20:18 34.311452 -97.315387 304 32006ft 395kts
15-Apr-20 20:19 34.380578 -97.417818 303 33379ft 390kts
15-Apr-20 20:21 34.448535 -97.518756 303 34610ft 386kts
15-Apr-20 20:22 34.516168 -97.619488 303 35693ft 384kts
15-Apr-20 20:23 34.583531 -97.720180 302 36157ft 388kts
15-Apr-20 20:24 34.651059 -97.821346 303 36157ft 382kts
15-Apr-20 20:25 34.718308 -97.922398 303 36157ft 386kts
15-Apr-20 20:26 34.785650 -98.023782 303 36133ft 385kts
15-Apr-20 20:27 34.852994 -98.125578 302 36121ft 385kts
15-Apr-20 20:28 34.919188 -98.226981 302 36117ft 381kts
15-Apr-20 20:29 34.985004 -98.327245 302 36103ft 375kts
15-Apr-20 20:30 35.049483 -98.425549 302 36091ft 369kts
15-Apr-20 20:31 35.113675 -98.523722 302 36102ft 370kts
15-Apr-20 20:32 35.177716 -98.621819 302 36111ft 370kts
15-Apr-20 20:33 35.241642 -98.720171 301 36128ft 370kts
15-Apr-20 20:34 35.305489 -98.818660 302 36125ft 370kts
15-Apr-20 20:35 35.369212 -98.917122 301 36127ft 370kts
15-Apr-20 20:36 35.432834 -99.015667 302 36119ft 368kts
15-Apr-20 20:37 35.496261 -99.114197 302 36121ft 368kts
15-Apr-20 20:38 35.559236 -99.212298 302 36112ft 367kts
15-Apr-20 20:39 35.622495 -99.311108 302 36101ft 366kts
15-Apr-20 20:39 35.674298 -99.392236 302 36092ft 367kts
15-Apr-20 20:41 35.752544 -99.503538 308 36089ft 372kts
15-Apr-20 20:42 35.826777 -99.592877 309 36088ft 374kts
15-Apr-20 20:42 35.889045 -99.666712 308 36083ft 373kts
15-Apr-20 20:44 35.976323 -99.770398 308 36061ft 374kts
15-Apr-20 20:44 36.038834 -99.844697 308 36056ft 374kts
15-Apr-20 20:45 36.113648 -99.933803 308 36056ft 373kts
15-Apr-20 20:47 36.200067 -100.037065 308 36057ft 371kts
15-Apr-20 20:47 36.262289 -100.111622 308 36053ft 374kts
15-Apr-20 20:48 36.336620 -100.200833 308 36051ft 371kts
15-Apr-20 20:49 36.410746 -100.290114 308 36042ft 371kts
15-Apr-20 20:50 36.484835 -100.379607 308 36030ft 373kts
15-Apr-20 20:51 36.559049 -100.469470 308 36027ft 372kts
15-Apr-20 20:52 36.633045 -100.559311 308 36025ft 373kts
15-Apr-20 20:53 36.707034 -100.649421 308 36022ft 374kts
15-Apr-20 20:54 36.781045 -100.740021 307 36040ft 372kts
15-Apr-20 20:55 36.854879 -100.830553 307 36039ft 373kts
15-Apr-20 20:56 36.929389 -100.922087 308 36036ft 380kts
15-Apr-20 20:57 37.004944 -101.015066 308 36034ft 380kts
15-Apr-20 20:58 37.079529 -101.107160 307 36031ft 374kts
15-Apr-20 20:59 37.152578 -101.197713 307 36028ft 367kts
15-Apr-20 21:00 37.225061 -101.287864 307 36023ft 369kts
15-Apr-20 21:01 37.297951 -101.378687 307 36020ft 369kts
15-Apr-20 21:02 37.370460 -101.469243 307 36019ft 368kts
15-Apr-20 21:03 37.443199 -101.560357 307 36016ft 369kts
15-Apr-20 21:04 37.500957 -101.638790 303 36016ft 366kts
15-Apr-20 21:05 37.566484 -101.736951 303 36032ft 364kts
15-Apr-20 21:06 37.632019 -101.834426 303 36026ft 364kts
15-Apr-20 21:07 37.690509 -101.921551 303 36023ft 365kts
15-Apr-20 21:08 37.755771 -102.018972 303 36025ft 365kts
15-Apr-20 21:09 37.810274 -102.100536 303 36024ft 365kts
15-Apr-20 21:10 37.877779 -102.196023 306 36022ft 367kts
15-Apr-20 21:11 37.947683 -102.290161 306 36020ft 367kts
15-Apr-20 21:12 38.017445 -102.384672 306 36017ft 366kts
15-Apr-20 21:13 38.086924 -102.479144 306 36015ft 367kts
15-Apr-20 21:14 38.156354 -102.573786 306 36017ft 367kts
15-Apr-20 21:15 38.225559 -102.668680 305 36032ft 366kts
15-Apr-20 21:16 38.294462 -102.763998 305 36033ft 366kts
15-Apr-20 21:17 38.363570 -102.859288 305 36031ft 366kts
15-Apr-20 21:18 38.432955 -102.955109 305 36028ft 366kts
15-Apr-20 21:19 38.501833 -103.050472 305 36026ft 366kts
15-Apr-20 21:20 38.570531 -103.145870 305 36024ft 366kts
15-Apr-20 21:21 38.639218 -103.241548 305 36022ft 366kts
15-Apr-20 21:22 38.707900 -103.337507 305 36020ft 366kts
15-Apr-20 21:23 38.775611 -103.432311 305 36017ft 353kts
15-Apr-20 21:24 38.842077 -103.526409 305 36016ft 357kts
15-Apr-20 21:25 38.910307 -103.623722 305 33389ft 374kts
15-Apr-20 21:26 38.978903 -103.721127 305 29046ft 376kts
15-Apr-20 21:27 39.048267 -103.819827 306 25186ft 361kts
15-Apr-20 21:28 39.113844 -103.913502 306 22636ft 351kts
15-Apr-20 21:29 39.178147 -104.006876 306 20201ft 347kts
15-Apr-20 21:30 39.241597 -104.099396 307 17807ft 340kts
15-Apr-20 21:31 39.295860 -104.184851 295 16831ft 284kts
15-Apr-20 21:32 39.317259 -104.282908 279 15067ft 289kts
15-Apr-20 21:33 39.333525 -104.386703 280 13300ft 304kts
15-Apr-20 21:34 39.348988 -104.484546 280 12842ft 260kts
15-Apr-20 21:35 39.363045 -104.573872 283 12038ft 245kts
15-Apr-20 21:36 39.398672 -104.645982 324 11931ft 249kts
15-Apr-20 21:37 39.465173 -104.664423 5 11932ft 253kts
15-Apr-20 21:38 39.535246 -104.662474 355 11327ft 259kts
15-Apr-20 21:39 39.606437 -104.663224 359 9935ft 254kts
15-Apr-20 21:40 39.674327 -104.662451 359 8528ft 232kts
15-Apr-20 21:41 39.735001 -104.661689 0 7305ft 204kts
15-Apr-20 21:42 39.785269 -104.661082 1 6322ft 159kts
15-Apr-20 21:43 39.821108 -104.660671 2 5638ft 164kts
15-Apr-20 21:44 39.850484 -104.660374 347 5445ft 33kts
15-Apr-20 21:45 39.854082 -104.662222 340 5445ft 13kts
15-Apr-20 21:46 39.856914 -104.662357 358 5444ft 21kts
15-Apr-20 21:47 39.862033 -104.662301 0 5445ft 16kts
15-Apr-20 21:48 39.865014 -104.663904 270 5444ft 14kts
15-Apr-20 21:49 39.864736 -104.669097 273 5445ft 17kts
15-Apr-20 21:50 39.863607 -104.672105 197 5445ft 2kts
15-Apr-20 21:51 39.863786 -104.671672 26 5445ft 11kts
15-Apr-20 21:52 39.863565 -104.672583 180 5445ft 3kts
15-Apr-20 21:53 39.863552 -104.672583 179 5445ft 0kts
15-Apr-20 21:54 39.863552 -104.672583 179 5445ft 0kts
15-Apr-20 21:55 39.863552 -104.672583 179 5445ft 0kts

Navigation Log

Ident Type
Flight plan parsing failed, navigation log unavailable